»·PEaware :: N505BY KMHV-KSBD

N505BY :: KMHV-KSBD

FLIGHT INFORMATION

Flight Status: Arrived
Operator: Privately registered:
United States
More flights under this callsign
Pilot: David S. (34675)
Aircraft: CESSNA 337 TURBO SKYMASTER
(C337)
More flights by this aircraft type
Origin: KMHV Mojave
United States
Destination: KSBD San Bernardino Intl
United States
More flights between these airports :: More routes between these airports
Route:
File this flight plan on PilotEdge
Remarks:
Altitude:
(Current/Filed)
7,500ft
Speed:
(Current/Filed)
140kts
Departed: 02-Apr-23 06:08 PM
Arrived: 02-Apr-23 06:43 PM
Distance/Time
Traveled:
73nm/0:35
Distance/Time
To Go:
Arrived

Flight Plot

Page will automatically refresh every two minutes.

Flight plan parsing failed; only flown route is shown


Map Options




Map Legend


Flown Route
Filed Route
Departure Airport
Arrival Airport
Navaid (VOR, NDB)
Fix

Horizontal Profiles

Position Reports

Time Latitude Longitude Heading Altitude Ground
Speed
02-Apr-23 17:48 35.057372 -118.157658 270 2783ft 0kts
02-Apr-23 17:49 35.057372 -118.157658 270 2783ft 0kts
02-Apr-23 17:53 35.057372 -118.157658 270 2785ft 0kts
02-Apr-23 17:54 35.057372 -118.157657 270 2785ft 0kts
02-Apr-23 17:55 35.057372 -118.157657 270 2784ft 0kts
02-Apr-23 17:56 35.057372 -118.157657 270 2784ft 0kts
02-Apr-23 17:57 35.057372 -118.157656 270 2784ft 0kts
02-Apr-23 17:58 35.057372 -118.157655 270 2784ft 0kts
02-Apr-23 17:59 35.057372 -118.157655 270 2784ft 0kts
02-Apr-23 18:00 35.057372 -118.157655 270 2784ft 0kts
02-Apr-23 18:01 35.057372 -118.157701 270 2785ft 3kts
02-Apr-23 18:02 35.057568 -118.152340 90 2777ft 25kts
02-Apr-23 18:03 35.056143 -118.147099 127 2781ft 16kts
02-Apr-23 18:04 35.051093 -118.140973 133 2755ft 28kts
02-Apr-23 18:05 35.045417 -118.134096 133 2718ft 31kts
02-Apr-23 18:06 35.044252 -118.131980 49 2709ft 0kts
02-Apr-23 18:07 35.044251 -118.131980 49 2709ft 0kts
02-Apr-23 18:07 35.047022 -118.133678 315 2721ft 50kts
02-Apr-23 18:09 35.063259 -118.154503 283 3755ft 85kts
02-Apr-23 18:10 35.044956 -118.170640 195 5027ft 109kts
02-Apr-23 18:11 35.012121 -118.173276 197 5832ft 128kts
02-Apr-23 18:12 34.977757 -118.173038 195 6890ft 121kts
02-Apr-23 18:12 34.949307 -118.171766 191 7634ft 120kts
02-Apr-23 18:13 34.915162 -118.170238 192 8463ft 122kts
02-Apr-23 18:15 34.875018 -118.170089 194 9384ft 126kts
02-Apr-23 18:16 34.836452 -118.169574 190 9606ft 150kts
02-Apr-23 18:17 34.794629 -118.154830 150 9564ft 176kts
02-Apr-23 18:17 34.761798 -118.125637 157 9576ft 174kts
02-Apr-23 18:18 34.720995 -118.093858 158 9624ft 173kts
02-Apr-23 18:19 34.680367 -118.062375 157 9655ft 174kts
02-Apr-23 18:20 34.641125 -118.028266 133 9712ft 183kts
02-Apr-23 18:21 34.613330 -117.976034 130 9678ft 187kts
02-Apr-23 18:22 34.582608 -117.924352 135 9658ft 186kts
02-Apr-23 18:23 34.549709 -117.876396 138 9637ft 183kts
02-Apr-23 18:24 34.516045 -117.830048 144 9579ft 181kts
02-Apr-23 18:25 34.481515 -117.785383 136 9542ft 184kts
02-Apr-23 18:26 34.448934 -117.737403 141 9495ft 182kts
02-Apr-23 18:27 34.414936 -117.691429 138 9401ft 184kts
02-Apr-23 18:28 34.381241 -117.644835 142 9404ft 183kts
02-Apr-23 18:29 34.348516 -117.598645 138 8683ft 168kts
02-Apr-23 18:30 34.315106 -117.556088 145 8177ft 169kts
02-Apr-23 18:31 34.285533 -117.512275 128 7466ft 170kts
02-Apr-23 18:32 34.263522 -117.467182 125 6932ft 147kts
02-Apr-23 18:33 34.243185 -117.422310 125 6472ft 153kts
02-Apr-23 18:34 34.220410 -117.379706 141 5847ft 147kts
02-Apr-23 18:35 34.188981 -117.352378 153 4940ft 127kts
02-Apr-23 18:36 34.163070 -117.326390 137 3916ft 124kts
02-Apr-23 18:37 34.139300 -117.295203 139 3105ft 127kts
02-Apr-23 18:38 34.114377 -117.264309 137 2343ft 126kts
02-Apr-23 18:39 34.113368 -117.227069 79 2156ft 111kts
02-Apr-23 18:40 34.104765 -117.207108 229 1714ft 80kts
02-Apr-23 18:41 34.097134 -117.228785 250 1139ft 45kts
02-Apr-23 18:42 34.096006 -117.236221 328 1124ft 0kts
02-Apr-23 18:43 34.096127 -117.236301 332 1122ft 6kts
02-Apr-23 18:44 34.100583 -117.239423 329 1115ft 22kts
02-Apr-23 18:45 34.102283 -117.242587 190 1104ft 0kts
02-Apr-23 18:46 34.102283 -117.242587 190 1104ft 0kts

Navigation Log

Ident Type
Flight plan parsing failed, navigation log unavailable